createdAt,value
2018-05-29T00:00:16.027Z,23.83
2018-05-29T00:02:51.689Z,29.43
2018-05-29T00:05:28.288Z,24.73
2018-05-29T00:08:03.914Z,22.23
2018-05-29T00:10:40.513Z,18.33
2018-05-29T00:13:16.527Z,41.17
2018-05-29T00:15:52.591Z,29.87
2018-05-29T00:18:28.281Z,30.00
2018-05-29T00:21:03.562Z,25.90
2018-05-29T00:23:39.207Z,24.00
2018-05-29T00:26:16.516Z,19.70
2018-05-29T00:28:52.377Z,30.03
2018-05-29T00:31:28.915Z,35.43
2018-05-29T00:34:06.743Z,33.40
2018-05-29T00:36:42.885Z,23.87
2018-05-29T00:39:18.246Z,28.03
2018-05-29T00:41:53.176Z,26.53
2018-05-29T00:44:28.316Z,22.13
2018-05-29T00:47:03.291Z,27.97
2018-05-29T00:49:40.637Z,32.17
2018-05-29T00:52:15.773Z,32.13
2018-05-29T00:55:02.801Z,25.63
2018-05-29T00:57:39.391Z,20.90
2018-05-29T01:00:15.113Z,28.07
2018-05-29T01:02:51.891Z,22.30
2018-05-29T01:05:28.367Z,27.97
2018-05-29T01:08:03.402Z,30.83
2018-05-29T01:10:39.671Z,29.17
2018-05-29T01:13:16.059Z,38.47
2018-05-29T01:15:52.023Z,27.60
2018-05-29T01:18:28.255Z,33.70
2018-05-29T01:21:06.015Z,24.67
2018-05-29T01:23:42.154Z,22.07
2018-05-29T01:26:18.785Z,23.97
2018-05-29T01:28:54.542Z,30.40
2018-05-29T01:31:30.587Z,24.43
2018-05-29T01:34:06.077Z,27.23
2018-05-29T01:36:42.752Z,33.23
2018-05-29T01:39:19.795Z,32.43
2018-05-29T01:41:55.137Z,35.73
2018-05-29T01:44:32.949Z,22.63
2018-05-29T01:47:09.179Z,26.17
2018-05-29T01:49:44.757Z,28.30
2018-05-29T01:52:19.735Z,30.57
2018-05-29T01:54:55.515Z,32.13
2018-05-29T01:57:32.003Z,39.50
2018-05-29T02:00:06.985Z,36.97
2018-05-29T02:02:42.688Z,31.63
2018-05-29T02:05:19.365Z,23.03
2018-05-29T02:07:55.011Z,30.83
2018-05-29T02:10:30.254Z,28.60
2018-05-29T02:13:05.698Z,21.03
2018-05-29T02:15:40.673Z,23.60
2018-05-29T02:18:16.380Z,27.30
2018-05-29T02:20:53.466Z,23.53
2018-05-29T02:23:30.347Z,29.37
2018-05-29T02:26:06.550Z,22.57
2018-05-29T02:28:42.446Z,42.40
2018-05-29T02:31:18.122Z,18.07
2018-05-29T02:33:53.557Z,31.80
2018-05-29T02:36:28.250Z,40.03
2018-05-29T02:39:03.116Z,21.73
2018-05-29T02:41:38.862Z,20.13
2018-05-29T02:44:15.206Z,28.40
2018-05-29T02:46:50.366Z,29.07
2018-05-29T02:49:25.299Z,27.57
2018-05-29T02:52:01.152Z,40.10
2018-05-29T02:54:37.527Z,22.90
2018-05-29T02:57:13.481Z,31.37
2018-05-29T02:59:48.308Z,20.90
2018-05-29T03:02:23.959Z,25.97
2018-05-29T03:04:59.710Z,21.70
2018-05-29T03:07:36.790Z,33.77
2018-05-29T03:10:12.035Z,24.77
2018-05-29T03:12:46.964Z,24.63
2018-05-29T03:15:22.823Z,21.33
2018-05-29T03:17:58.572Z,18.70
2018-05-29T03:20:33.417Z,26.73
2018-05-29T03:23:09.156Z,37.40
2018-05-29T03:25:47.065Z,20.67
2018-05-29T03:28:21.887Z,19.07
2018-05-29T03:30:58.977Z,32.80
2018-05-29T03:33:34.843Z,22.40
2018-05-29T03:36:09.975Z,27.83
2018-05-29T03:38:46.332Z,26.77
2018-05-29T03:41:21.981Z,24.97
2018-05-29T03:43:57.202Z,30.00
2018-05-29T03:46:32.354Z,24.83
2018-05-29T03:49:09.246Z,28.70
2018-05-29T03:51:45.087Z,39.20
2018-05-29T03:54:20.329Z,30.60
2018-05-29T03:56:56.906Z,25.03
2018-05-29T03:59:31.840Z,29.33
2018-05-29T04:02:07.672Z,34.50
2018-05-29T04:04:42.531Z,36.33
2018-05-29T04:07:17.249Z,40.83
2018-05-29T04:09:52.094Z,32.00
2018-05-29T04:12:28.107Z,28.90
2018-05-29T04:15:03.995Z,36.23
2018-05-29T04:17:39.437Z,38.93
2018-05-29T04:20:15.086Z,26.30
2018-05-29T04:22:49.919Z,24.07
2018-05-29T04:25:25.421Z,23.63
2018-05-29T04:28:00.062Z,28.73
2018-05-29T04:30:34.930Z,27.33
2018-05-29T04:33:09.849Z,17.77
2018-05-29T04:35:45.703Z,26.67
2018-05-29T04:38:21.353Z,32.53
2018-05-29T04:40:57.821Z,19.50
2018-05-29T04:43:33.066Z,19.23
2018-05-29T04:46:08.722Z,18.50
2018-05-29T04:48:44.316Z,20.27
2018-05-29T04:51:19.402Z,27.50
2018-05-29T04:53:55.054Z,23.07
2018-05-29T04:56:30.701Z,18.77
2018-05-29T04:59:05.535Z,21.70
2018-05-29T05:01:41.176Z,24.67
2018-05-29T05:04:16.013Z,24.47
2018-05-29T05:06:51.862Z,24.43
2018-05-29T05:09:26.698Z,25.20
2018-05-29T05:12:01.725Z,24.53
2018-05-29T05:14:37.994Z,21.83
2018-05-29T05:17:13.131Z,24.57
2018-05-29T05:19:50.026Z,15.60
2018-05-29T05:22:25.654Z,16.47
2018-05-29T05:25:02.225Z,19.23
2018-05-29T05:27:37.470Z,27.60
2018-05-29T05:30:13.367Z,25.83
2018-05-29T05:32:50.095Z,21.50
2018-05-29T05:35:24.881Z,22.87
2018-05-29T05:38:05.125Z,20.47
2018-05-29T05:40:40.424Z,15.20
2018-05-29T05:43:16.083Z,17.87
2018-05-29T05:45:52.751Z,18.00
2018-05-29T05:48:27.692Z,21.27
2018-05-29T05:51:03.717Z,12.90
2018-05-29T05:53:39.457Z,13.50
2018-05-29T05:56:14.773Z,14.73
2018-05-29T05:58:50.280Z,33.87
2018-05-29T06:01:26.306Z,39.03
2018-05-29T06:04:02.398Z,18.43
2018-05-29T06:06:37.540Z,20.03
2018-05-29T06:09:13.498Z,14.87
2018-05-29T06:11:49.100Z,13.80
2018-05-29T06:14:24.904Z,40.37
2018-05-29T06:17:00.540Z,18.67
2018-05-29T06:19:40.287Z,18.73
2018-05-29T06:22:16.699Z,15.37
2018-05-29T06:24:52.208Z,13.10
2018-05-29T06:27:28.826Z,13.07
2018-05-29T06:30:04.665Z,21.40
2018-05-29T06:32:39.831Z,9.90
2018-05-29T06:35:16.337Z,17.53
2018-05-29T06:37:51.170Z,14.00
2018-05-29T06:40:26.203Z,20.67
2018-05-29T06:43:02.567Z,13.10
2018-05-29T06:45:38.426Z,37.00
2018-05-29T06:48:14.380Z,23.77
2018-05-29T06:50:49.149Z,15.47
2018-05-29T06:53:24.039Z,28.43
2018-05-29T06:56:00.711Z,20.80
2018-05-29T06:58:35.748Z,13.37
2018-05-29T07:01:12.014Z,16.53
2018-05-29T07:03:47.255Z,14.10
2018-05-29T07:06:23.827Z,17.80
2018-05-29T07:08:59.475Z,10.13
2018-05-29T07:11:34.711Z,9.80
2018-05-29T07:14:10.975Z,9.20
2018-05-29T07:16:45.815Z,15.47
2018-05-29T07:19:20.748Z,36.03
2018-05-29T07:21:56.356Z,23.43
2018-05-29T07:24:32.142Z,18.33
2018-05-29T07:27:07.618Z,13.17
2018-05-29T07:29:43.336Z,10.43
2018-05-29T07:32:18.373Z,18.53
2018-05-29T07:34:53.407Z,14.30
2018-05-29T07:37:29.877Z,11.33
2018-05-29T07:40:04.913Z,7.87
2018-05-29T07:42:40.673Z,9.30
2018-05-29T07:45:15.739Z,8.93
2018-05-29T07:47:51.763Z,23.90
2018-05-29T07:50:27.510Z,11.83
2018-05-29T07:53:03.163Z,9.87
2018-05-29T07:55:39.632Z,10.60
2018-05-29T07:58:14.568Z,7.40
2018-05-29T08:00:50.155Z,6.40
2018-05-29T08:03:25.694Z,5.60
2018-05-29T08:06:01.394Z,10.10
2018-05-29T08:08:36.648Z,9.50
2018-05-29T08:11:11.993Z,5.93
2018-05-29T08:13:46.844Z,6.87
2018-05-29T08:16:21.756Z,10.17
2018-05-29T08:18:57.507Z,11.17
2018-05-29T08:21:33.263Z,8.47
2018-05-29T08:24:09.625Z,12.70
2018-05-29T08:26:44.659Z,7.53
2018-05-29T08:29:20.517Z,5.73
2018-05-29T08:31:55.788Z,11.13
2018-05-29T08:34:30.518Z,5.43
2018-05-29T08:37:05.274Z,16.00
2018-05-29T08:39:43.693Z,7.27
2018-05-29T08:42:18.749Z,5.50
2018-05-29T08:44:54.495Z,8.10
2018-05-29T08:47:30.265Z,7.20
2018-05-29T08:50:06.132Z,12.87
2018-05-29T08:52:41.779Z,11.37
2018-05-29T08:55:17.648Z,11.73
2018-05-29T08:57:53.277Z,6.10
2018-05-29T09:00:28.310Z,5.20
2018-05-29T09:03:04.874Z,10.83
2018-05-29T09:05:41.265Z,13.50
2018-05-29T09:08:15.950Z,8.27
2018-05-29T09:10:50.909Z,9.63
2018-05-29T09:13:26.535Z,13.63
2018-05-29T09:16:02.091Z,5.57
2018-05-29T09:18:36.915Z,9.53
2018-05-29T09:21:11.613Z,4.30
2018-05-29T09:23:46.271Z,6.43
2018-05-29T09:26:21.037Z,6.57
2018-05-29T09:28:55.788Z,11.17
2018-05-29T09:31:33.629Z,13.57
2018-05-29T09:34:08.790Z,14.13
2018-05-29T09:36:44.645Z,7.20
2018-05-29T09:39:20.499Z,4.70
2018-05-29T09:41:56.758Z,9.97
2018-05-29T09:44:32.719Z,6.50
2018-05-29T09:47:12.236Z,7.77
2018-05-29T09:49:47.496Z,6.90
2018-05-29T09:52:22.511Z,4.40
2018-05-29T09:54:58.708Z,5.47
2018-05-29T09:57:33.869Z,3.80
2018-05-29T10:00:09.328Z,5.13
2018-05-29T10:02:45.027Z,6.10
2018-05-29T10:05:21.088Z,9.90
2018-05-29T10:07:55.966Z,8.13
2018-05-29T10:10:31.722Z,8.53
2018-05-29T10:13:07.242Z,6.90
2018-05-29T10:15:42.040Z,6.50
2018-05-29T10:18:16.800Z,5.33
2018-05-29T10:20:52.382Z,7.43
2018-05-29T10:23:27.213Z,5.80
2018-05-29T10:26:02.289Z,17.30
2018-05-29T10:28:37.893Z,6.77
2018-05-29T10:31:13.555Z,8.00
2018-05-29T10:33:49.235Z,6.83
2018-05-29T10:36:25.093Z,2.63
2018-05-29T10:39:00.358Z,8.50
2018-05-29T10:41:36.182Z,9.07
2018-05-29T10:44:12.518Z,10.90
2018-05-29T10:46:47.385Z,13.73
2018-05-29T10:49:22.070Z,8.30
2018-05-29T10:51:57.689Z,10.03
2018-05-29T10:54:33.407Z,11.20
2018-05-29T10:57:08.238Z,4.17
2018-05-29T10:59:42.977Z,2.87
2018-05-29T11:02:17.695Z,5.33
2018-05-29T11:04:54.369Z,7.50
2018-05-29T11:07:29.405Z,4.50
2018-05-29T11:10:05.872Z,9.47
2018-05-29T11:12:40.702Z,11.30
2018-05-29T11:15:16.454Z,9.40
2018-05-29T11:17:51.197Z,3.33
2018-05-29T11:20:26.938Z,8.03
2018-05-29T11:23:02.390Z,4.77
2018-05-29T11:25:38.115Z,9.83
2018-05-29T11:28:12.962Z,6.37
2018-05-29T11:30:48.612Z,9.73
2018-05-29T11:33:24.157Z,9.23
2018-05-29T11:35:59.151Z,10.13
2018-05-29T11:38:35.543Z,4.67
2018-05-29T11:41:10.876Z,5.87
2018-05-29T11:43:48.910Z,5.80
2018-05-29T11:46:23.742Z,3.00
2018-05-29T11:48:59.416Z,4.57
2018-05-29T11:51:34.203Z,6.30
2018-05-29T11:54:09.882Z,4.67
2018-05-29T11:56:44.697Z,7.47
2018-05-29T11:59:20.865Z,7.10
2018-05-29T12:01:55.754Z,9.73
2018-05-29T12:04:31.272Z,12.73
2018-05-29T12:07:06.201Z,7.90
2018-05-29T12:09:41.929Z,9.10
2018-05-29T12:12:28.465Z,14.00
2018-05-29T12:15:03.951Z,4.77
2018-05-29T12:17:39.112Z,4.40
2018-05-29T12:20:15.475Z,13.23
2018-05-29T12:22:51.231Z,8.27
2018-05-29T12:25:27.491Z,7.37
2018-05-29T12:28:02.997Z,9.33
2018-05-29T12:30:38.587Z,9.50
2018-05-29T12:33:14.796Z,7.37
2018-05-29T12:35:50.238Z,14.50
2018-05-29T12:38:25.835Z,9.20
2018-05-29T12:41:00.674Z,7.10
2018-05-29T12:43:36.528Z,12.00
2018-05-29T12:46:11.998Z,7.70
2018-05-29T12:48:46.909Z,3.07
2018-05-29T12:51:22.658Z,6.07
2018-05-29T12:53:58.323Z,3.17
2018-05-29T12:56:33.296Z,12.33
2018-05-29T12:59:09.769Z,11.37
2018-05-29T13:01:44.743Z,18.93
2018-05-29T13:04:20.398Z,7.83
2018-05-29T13:06:55.580Z,5.90
2018-05-29T13:09:31.286Z,11.43
2018-05-29T13:12:06.680Z,9.97
2018-05-29T13:14:42.378Z,16.27
2018-05-29T13:17:17.018Z,10.90
2018-05-29T13:19:52.652Z,6.53
2018-05-29T13:22:28.216Z,6.23
2018-05-29T13:25:03.118Z,5.27
2018-05-29T13:27:38.789Z,8.90
2018-05-29T13:30:13.880Z,6.60
2018-05-29T13:32:50.183Z,7.97
2018-05-29T13:35:25.525Z,6.33
2018-05-29T13:38:00.972Z,5.60
2018-05-29T13:40:36.009Z,9.07
2018-05-29T13:43:11.218Z,8.07
2018-05-29T13:45:45.973Z,9.03
2018-05-29T13:48:20.707Z,6.27
2018-05-29T13:50:55.596Z,10.03
2018-05-29T13:53:30.185Z,11.37
2018-05-29T13:56:06.019Z,10.83
2018-05-29T13:58:41.158Z,5.47
2018-05-29T14:01:16.089Z,5.03
2018-05-29T14:03:50.816Z,6.47
2018-05-29T14:06:26.528Z,3.43
2018-05-29T14:09:01.559Z,11.60
2018-05-29T14:11:38.439Z,4.30
2018-05-29T14:14:14.480Z,8.50
2018-05-29T14:16:50.596Z,11.93
2018-05-29T14:19:26.450Z,7.60
2018-05-29T14:22:02.101Z,18.40
2018-05-29T14:24:37.594Z,9.70
2018-05-29T14:27:12.725Z,7.47
2018-05-29T14:29:47.410Z,17.43
2018-05-29T14:32:23.005Z,7.07
2018-05-29T14:34:57.993Z,5.47
2018-05-29T14:37:32.716Z,3.60
2018-05-29T14:40:07.437Z,12.73
2018-05-29T14:42:42.389Z,3.57
2018-05-29T14:45:17.822Z,3.47
2018-05-29T14:47:53.071Z,7.80
2018-05-29T14:50:29.435Z,7.50
2018-05-29T14:53:04.465Z,7.00
2018-05-29T14:55:39.249Z,11.07
2018-05-29T14:58:14.085Z,7.43
2018-05-29T15:00:48.758Z,10.00
2018-05-29T15:03:24.714Z,6.33
2018-05-29T15:05:59.541Z,5.50
2018-05-29T15:08:35.139Z,5.67
2018-05-29T15:11:10.105Z,12.03
2018-05-29T15:13:44.852Z,7.23
2018-05-29T15:16:19.682Z,13.40
2018-05-29T15:18:55.385Z,6.00
2018-05-29T15:21:30.260Z,5.77
2018-05-29T15:24:05.098Z,9.50
2018-05-29T15:26:40.132Z,15.73
2018-05-29T15:29:15.779Z,3.07
2018-05-29T15:31:51.637Z,9.90
2018-05-29T15:34:26.669Z,6.00
2018-05-29T15:37:02.215Z,6.57
2018-05-29T15:39:38.071Z,4.70
2018-05-29T15:42:13.104Z,8.07
2018-05-29T15:44:47.938Z,4.07
2018-05-29T15:47:23.361Z,14.40
2018-05-29T15:49:58.312Z,8.57
2018-05-29T15:52:33.254Z,4.03
2018-05-29T15:55:08.896Z,5.93
2018-05-29T15:57:44.389Z,11.60
2018-05-29T16:00:19.333Z,10.70
2018-05-29T16:02:54.055Z,12.60
2018-05-29T16:05:29.102Z,3.73
2018-05-29T16:08:04.946Z,7.20
2018-05-29T16:10:41.199Z,6.73
2018-05-29T16:13:16.398Z,10.00
2018-05-29T16:15:53.034Z,2.90
2018-05-29T16:18:30.941Z,4.97
2018-05-29T16:21:06.179Z,6.23
2018-05-29T16:23:41.170Z,7.13
2018-05-29T16:26:17.477Z,2.60
2018-05-29T16:28:52.552Z,13.20
2018-05-29T16:31:28.180Z,3.17
2018-05-29T16:34:03.067Z,13.50
2018-05-29T16:36:38.846Z,8.37
2018-05-29T16:39:15.122Z,1.77
2018-05-29T16:41:50.054Z,4.60
2018-05-29T16:44:25.838Z,4.90
2018-05-29T16:47:01.932Z,3.53
2018-05-29T16:49:37.286Z,5.63
2018-05-29T16:52:12.150Z,4.93
2018-05-29T16:54:46.999Z,2.50
2018-05-29T16:57:23.356Z,12.80
2018-05-29T16:59:59.135Z,4.40
2018-05-29T17:02:34.090Z,8.87
2018-05-29T17:05:08.743Z,6.60
2018-05-29T17:07:43.545Z,3.70
2018-05-29T17:10:19.002Z,5.53
2018-05-29T17:12:53.937Z,6.00
2018-05-29T17:15:28.737Z,7.10
2018-05-29T17:18:04.647Z,2.30
2018-05-29T17:20:40.038Z,5.13
2018-05-29T17:23:14.833Z,4.60
2018-05-29T17:25:51.315Z,7.27
2018-05-29T17:28:26.084Z,8.83
2018-05-29T17:31:01.799Z,3.73
2018-05-29T17:33:37.467Z,4.43
2018-05-29T17:36:12.266Z,5.13
2018-05-29T17:38:48.043Z,4.73
2018-05-29T17:41:22.740Z,4.40
2018-05-29T17:43:57.791Z,8.10
2018-05-29T17:46:33.227Z,13.83
2018-05-29T17:49:07.951Z,5.70
2018-05-29T17:51:42.786Z,5.20
2018-05-29T17:54:19.672Z,5.57
2018-05-29T17:56:54.490Z,7.30
2018-05-29T17:59:30.953Z,10.00
2018-05-29T18:02:06.314Z,6.43
2018-05-29T18:04:42.671Z,13.93
2018-05-29T18:07:17.705Z,8.90
2018-05-29T18:09:53.382Z,4.03
2018-05-29T18:12:28.805Z,9.17
2018-05-29T18:15:04.049Z,5.17
2018-05-29T18:17:39.637Z,6.77
2018-05-29T18:20:14.721Z,3.80
2018-05-29T18:22:49.557Z,15.53
2018-05-29T18:25:25.207Z,10.10
2018-05-29T18:28:00.850Z,11.50
2018-05-29T18:30:35.990Z,7.30
2018-05-29T18:33:11.614Z,11.53
2018-05-29T18:35:48.111Z,3.53
2018-05-29T18:38:23.066Z,4.67
2018-05-29T18:40:57.871Z,3.73
2018-05-29T18:43:32.851Z,4.87
2018-05-29T18:46:09.627Z,6.87
2018-05-29T18:48:44.618Z,4.53
2018-05-29T18:51:20.508Z,5.90
2018-05-29T18:53:56.839Z,3.33
2018-05-29T18:56:31.869Z,4.47
2018-05-29T18:59:07.523Z,7.13
2018-05-29T19:01:43.172Z,5.80
2018-05-29T19:04:18.011Z,11.37
2018-05-29T19:06:52.935Z,13.93
2018-05-29T19:09:29.299Z,8.10
2018-05-29T19:12:05.257Z,7.97
2018-05-29T19:14:41.109Z,3.43
2018-05-29T19:17:16.000Z,5.90
2018-05-29T19:19:50.774Z,7.27
2018-05-29T19:22:25.465Z,8.70
2018-05-29T19:25:00.161Z,9.77
2018-05-29T19:27:35.432Z,7.47
2018-05-29T19:30:11.226Z,10.00
2018-05-29T19:32:47.695Z,8.10
2018-05-29T19:35:23.549Z,10.90
2018-05-29T19:37:59.808Z,7.70
2018-05-29T19:40:35.481Z,13.17
2018-05-29T19:43:12.016Z,9.47
2018-05-29T19:45:48.082Z,10.60
2018-05-29T19:48:23.065Z,9.20
2018-05-29T19:50:58.071Z,5.67
2018-05-29T19:53:33.502Z,14.03
2018-05-29T19:56:08.886Z,13.90
2018-05-29T19:58:44.665Z,20.70
2018-05-29T20:01:20.172Z,8.57
2018-05-29T20:03:55.385Z,17.27
2018-05-29T20:06:31.908Z,5.67
2018-05-29T20:09:07.619Z,9.70
2018-05-29T20:11:43.837Z,4.03
2018-05-29T20:14:18.900Z,5.70
2018-05-29T20:20:01.242Z,7.30
2018-05-29T20:22:38.204Z,5.70
2018-05-29T20:25:21.255Z,5.70
2018-05-29T20:27:59.269Z,4.47
2018-05-29T20:30:35.857Z,5.07
2018-05-29T20:33:11.546Z,7.80
2018-05-29T20:35:47.916Z,6.90
2018-05-29T20:38:23.356Z,5.50
2018-05-29T20:40:59.682Z,39.60
2018-05-29T20:43:35.334Z,12.70
2018-05-29T20:46:13.587Z,6.37
2018-05-29T20:48:49.805Z,9.03
2018-05-29T20:51:24.890Z,19.33
2018-05-29T20:54:00.897Z,10.97
2018-05-29T20:56:35.871Z,6.60
2018-05-29T20:59:11.130Z,14.00
2018-05-29T21:01:47.025Z,4.93
2018-05-29T21:04:22.473Z,7.83
2018-05-29T21:06:59.169Z,20.47
2018-05-29T21:09:33.909Z,8.47
2018-05-29T21:12:09.628Z,14.30
2018-05-29T21:14:46.442Z,11.13
2018-05-29T21:17:22.974Z,7.60
2018-05-29T21:19:58.079Z,9.33
2018-05-29T21:22:33.657Z,36.37
2018-05-29T21:25:09.925Z,29.97
2018-05-29T21:27:44.715Z,8.30
2018-05-29T21:30:20.812Z,7.10
2018-05-29T21:32:56.051Z,4.73
2018-05-29T21:35:31.926Z,7.10
2018-05-29T21:38:06.948Z,12.40
2018-05-29T21:40:41.775Z,9.07
2018-05-29T21:43:16.910Z,11.93
2018-05-29T21:45:51.795Z,8.73
2018-05-29T21:48:27.080Z,9.03
2018-05-29T21:51:03.143Z,10.53
2018-05-29T21:53:39.418Z,7.00
2018-05-29T21:56:15.470Z,9.73
2018-05-29T21:58:50.909Z,8.93
2018-05-29T22:01:25.706Z,3.63
2018-05-29T22:04:04.281Z,4.70
2018-05-29T22:06:40.466Z,4.30
2018-05-29T22:09:16.580Z,7.73
2018-05-29T22:11:51.620Z,5.67
2018-05-29T22:14:26.449Z,3.43
2018-05-29T22:17:02.502Z,9.23
2018-05-29T22:19:37.536Z,9.63
2018-05-29T22:22:12.984Z,5.93
2018-05-29T22:24:48.840Z,8.03
2018-05-29T22:27:23.605Z,11.13
2018-05-29T22:30:00.159Z,9.30
2018-05-29T22:32:36.401Z,8.20
2018-05-29T22:35:20.587Z,3.37
2018-05-29T22:37:56.447Z,4.20
2018-05-29T22:40:31.540Z,4.63
2018-05-29T22:43:06.371Z,13.53
2018-05-29T22:45:41.203Z,11.20
2018-05-29T22:48:16.197Z,14.57
2018-05-29T22:50:51.864Z,30.43
2018-05-29T22:53:27.150Z,5.73
2018-05-29T22:56:02.381Z,12.13
2018-05-29T22:58:38.056Z,10.97
2018-05-29T23:01:13.189Z,4.80
2018-05-29T23:03:49.117Z,12.90
2018-05-29T23:06:24.554Z,2.10
2018-05-29T23:09:00.627Z,6.27
2018-05-29T23:11:36.264Z,16.60
2018-05-29T23:14:13.478Z,16.50
2018-05-29T23:16:51.581Z,9.50
2018-05-29T23:19:27.778Z,4.83
2018-05-29T23:22:02.961Z,8.80
2018-05-29T23:24:39.963Z,5.13
2018-05-29T23:27:16.910Z,13.90
2018-05-29T23:29:51.970Z,2.97
2018-05-29T23:32:28.666Z,5.40
2018-05-29T23:35:04.457Z,7.43
2018-05-29T23:37:41.771Z,4.83
2018-05-29T23:40:18.058Z,3.57
2018-05-29T23:42:53.740Z,8.30
2018-05-29T23:45:29.230Z,4.77
2018-05-29T23:48:05.062Z,17.63
2018-05-29T23:50:40.840Z,4.77
2018-05-29T23:53:17.501Z,4.77
2018-05-29T23:55:53.451Z,12.57
2018-05-29T23:58:28.813Z,3.70
